sensor_id;sensor_type;location;lat;lon;timestamp;P1;durP1;ratioP1;P2;durP2;ratioP2
25972;SDS011;13765;51.166;4.466;2023-04-01T00:00:56;4.47;;;1.67;;
25972;SDS011;13765;51.166;4.466;2023-04-01T00:03:25;4.82;;;1.95;;
25972;SDS011;13765;51.166;4.466;2023-04-01T00:05:56;6.78;;;1.67;;
25972;SDS011;13765;51.166;4.466;2023-04-01T00:08:23;9.18;;;1.83;;
25972;SDS011;13765;51.166;4.466;2023-04-01T00:10:51;3.17;;;1.35;;
25972;SDS011;13765;51.166;4.466;2023-04-01T00:13:17;6.05;;;2.08;;
25972;SDS011;13765;51.166;4.466;2023-04-01T00:15:43;5.80;;;1.63;;
25972;SDS011;13765;51.166;4.466;2023-04-01T00:18:09;5.45;;;1.75;;
25972;SDS011;13765;51.166;4.466;2023-04-01T00:20:36;8.32;;;1.70;;
25972;SDS011;13765;51.166;4.466;2023-04-01T00:23:02;3.47;;;1.35;;
25972;SDS011;13765;51.166;4.466;2023-04-01T00:25:28;10.25;;;1.90;;
25972;SDS011;13765;51.166;4.466;2023-04-01T00:27:56;4.15;;;1.85;;
25972;SDS011;13765;51.166;4.466;2023-04-01T00:30:21;4.22;;;2.08;;
25972;SDS011;13765;51.166;4.466;2023-04-01T00:32:50;6.50;;;2.58;;
25972;SDS011;13765;51.166;4.466;2023-04-01T00:35:20;7.57;;;2.40;;
25972;SDS011;13765;51.166;4.466;2023-04-01T00:37:50;6.03;;;2.25;;
25972;SDS011;13765;51.166;4.466;2023-04-01T00:40:30;3.83;;;1.58;;
25972;SDS011;13765;51.166;4.466;2023-04-01T00:42:59;4.45;;;1.88;;
25972;SDS011;13765;51.166;4.466;2023-04-01T00:47:51;10.63;;;2.55;;
25972;SDS011;13765;51.166;4.466;2023-04-01T00:50:17;5.00;;;2.53;;
25972;SDS011;13765;51.166;4.466;2023-04-01T00:52:43;10.95;;;3.50;;
25972;SDS011;13765;51.166;4.466;2023-04-01T00:55:08;14.98;;;3.30;;
25972;SDS011;13765;51.166;4.466;2023-04-01T00:57:38;9.40;;;3.13;;
25972;SDS011;13765;51.166;4.466;2023-04-01T01:00:07;6.82;;;2.25;;
25972;SDS011;13765;51.166;4.466;2023-04-01T01:02:36;13.65;;;2.70;;
25972;SDS011;13765;51.166;4.466;2023-04-01T01:05:05;8.05;;;3.00;;
25972;SDS011;13765;51.166;4.466;2023-04-01T01:10:41;8.57;;;2.55;;
25972;SDS011;13765;51.166;4.466;2023-04-01T01:18:43;12.10;;;3.47;;
25972;SDS011;13765;51.166;4.466;2023-04-01T01:21:35;9.05;;;2.75;;
25972;SDS011;13765;51.166;4.466;2023-04-01T01:37:47;11.25;;;4.68;;
25972;SDS011;13765;51.166;4.466;2023-04-01T01:40:21;10.63;;;3.88;;
25972;SDS011;13765;51.166;4.466;2023-04-01T01:42:48;6.97;;;3.00;;
25972;SDS011;13765;51.166;4.466;2023-04-01T01:45:19;9.85;;;3.38;;
25972;SDS011;13765;51.166;4.466;2023-04-01T01:47:51;6.82;;;2.58;;
25972;SDS011;13765;51.166;4.466;2023-04-01T01:50:17;9.45;;;3.10;;
25972;SDS011;13765;51.166;4.466;2023-04-01T01:52:44;6.88;;;2.88;;
25972;SDS011;13765;51.166;4.466;2023-04-01T01:57:57;8.93;;;3.78;;
25972;SDS011;13765;51.166;4.466;2023-04-01T02:00:27;10.32;;;3.55;;
25972;SDS011;13765;51.166;4.466;2023-04-01T02:02:53;10.57;;;3.53;;
25972;SDS011;13765;51.166;4.466;2023-04-01T02:05:21;12.65;;;5.63;;
25972;SDS011;13765;51.166;4.466;2023-04-01T02:10:50;7.78;;;3.38;;
25972;SDS011;13765;51.166;4.466;2023-04-01T02:15:56;5.43;;;2.67;;
25972;SDS011;13765;51.166;4.466;2023-04-01T02:18:29;10.38;;;3.28;;
25972;SDS011;13765;51.166;4.466;2023-04-01T02:21:00;9.02;;;2.83;;
25972;SDS011;13765;51.166;4.466;2023-04-01T02:23:29;9.25;;;3.08;;
25972;SDS011;13765;51.166;4.466;2023-04-01T02:26:01;9.57;;;2.88;;
25972;SDS011;13765;51.166;4.466;2023-04-01T02:28:33;4.78;;;2.58;;
25972;SDS011;13765;51.166;4.466;2023-04-01T02:31:01;9.38;;;2.95;;
25972;SDS011;13765;51.166;4.466;2023-04-01T02:33:28;3.72;;;2.00;;
25972;SDS011;13765;51.166;4.466;2023-04-01T02:35:55;6.28;;;2.78;;
25972;SDS011;13765;51.166;4.466;2023-04-01T02:38:25;7.88;;;2.58;;
25972;SDS011;13765;51.166;4.466;2023-04-01T02:41:00;11.63;;;3.08;;
25972;SDS011;13765;51.166;4.466;2023-04-01T02:43:27;13.20;;;3.92;;
25972;SDS011;13765;51.166;4.466;2023-04-01T02:45:53;6.47;;;2.83;;
25972;SDS011;13765;51.166;4.466;2023-04-01T02:48:21;6.68;;;2.85;;
25972;SDS011;13765;51.166;4.466;2023-04-01T02:50:47;10.02;;;3.60;;
25972;SDS011;13765;51.166;4.466;2023-04-01T02:53:12;8.23;;;3.50;;
25972;SDS011;13765;51.166;4.466;2023-04-01T02:55:41;12.75;;;3.58;;
25972;SDS011;13765;51.166;4.466;2023-04-01T02:58:06;10.73;;;3.53;;
25972;SDS011;13765;51.166;4.466;2023-04-01T03:00:32;6.60;;;2.92;;
25972;SDS011;13765;51.166;4.466;2023-04-01T03:02:58;5.60;;;2.72;;
25972;SDS011;13765;51.166;4.466;2023-04-01T03:05:24;7.03;;;3.22;;
25972;SDS011;13765;51.166;4.466;2023-04-01T03:07:50;7.55;;;2.72;;
25972;SDS011;13765;51.166;4.466;2023-04-01T03:10:16;9.73;;;2.92;;
25972;SDS011;13765;51.166;4.466;2023-04-01T03:12:42;4.50;;;2.22;;
25972;SDS011;13765;51.166;4.466;2023-04-01T03:15:09;6.93;;;2.60;;
25972;SDS011;13765;51.166;4.466;2023-04-01T03:17:36;6.70;;;2.58;;
25972;SDS011;13765;51.166;4.466;2023-04-01T03:20:02;8.68;;;2.75;;
25972;SDS011;13765;51.166;4.466;2023-04-01T03:22:29;8.70;;;2.45;;
25972;SDS011;13765;51.166;4.466;2023-04-01T03:24:55;7.03;;;2.00;;
25972;SDS011;13765;51.166;4.466;2023-04-01T03:27:24;4.65;;;2.00;;
25972;SDS011;13765;51.166;4.466;2023-04-01T03:29:52;7.28;;;2.47;;
25972;SDS011;13765;51.166;4.466;2023-04-01T03:32:17;6.60;;;2.17;;
25972;SDS011;13765;51.166;4.466;2023-04-01T03:34:43;4.43;;;1.88;;
25972;SDS011;13765;51.166;4.466;2023-04-01T03:37:11;3.92;;;1.42;;
25972;SDS011;13765;51.166;4.466;2023-04-01T03:39:39;6.43;;;2.97;;
25972;SDS011;13765;51.166;4.466;2023-04-01T03:42:05;5.78;;;2.00;;
25972;SDS011;13765;51.166;4.466;2023-04-01T03:44:32;8.30;;;3.45;;
25972;SDS011;13765;51.166;4.466;2023-04-01T03:46:58;4.90;;;2.50;;
25972;SDS011;13765;51.166;4.466;2023-04-01T03:49:26;6.15;;;2.53;;
25972;SDS011;13765;51.166;4.466;2023-04-01T03:51:52;7.65;;;2.65;;
25972;SDS011;13765;51.166;4.466;2023-04-01T03:54:18;8.27;;;3.03;;
25972;SDS011;13765;51.166;4.466;2023-04-01T03:56:45;5.57;;;2.13;;
25972;SDS011;13765;51.166;4.466;2023-04-01T03:59:11;7.32;;;2.53;;
25972;SDS011;13765;51.166;4.466;2023-04-01T04:01:37;9.65;;;3.05;;
25972;SDS011;13765;51.166;4.466;2023-04-01T04:04:05;14.10;;;4.63;;
25972;SDS011;13765;51.166;4.466;2023-04-01T04:06:31;13.20;;;3.03;;
25972;SDS011;13765;51.166;4.466;2023-04-01T04:08:58;11.07;;;4.35;;
25972;SDS011;13765;51.166;4.466;2023-04-01T04:11:23;11.13;;;3.75;;
25972;SDS011;13765;51.166;4.466;2023-04-01T04:13:49;6.55;;;2.97;;
25972;SDS011;13765;51.166;4.466;2023-04-01T04:16:15;11.43;;;4.20;;
25972;SDS011;13765;51.166;4.466;2023-04-01T04:18:42;9.38;;;4.13;;
25972;SDS011;13765;51.166;4.466;2023-04-01T04:21:10;7.75;;;2.78;;
25972;SDS011;13765;51.166;4.466;2023-04-01T04:23:42;9.95;;;3.35;;
25972;SDS011;13765;51.166;4.466;2023-04-01T04:26:09;8.60;;;2.55;;
25972;SDS011;13765;51.166;4.466;2023-04-01T04:28:39;8.98;;;2.97;;
25972;SDS011;13765;51.166;4.466;2023-04-01T04:31:05;6.90;;;2.85;;
25972;SDS011;13765;51.166;4.466;2023-04-01T04:33:35;9.75;;;2.95;;
25972;SDS011;13765;51.166;4.466;2023-04-01T04:36:01;9.25;;;3.08;;
25972;SDS011;13765;51.166;4.466;2023-04-01T04:38:30;9.20;;;3.13;;
25972;SDS011;13765;51.166;4.466;2023-04-01T04:40:56;7.97;;;3.08;;
25972;SDS011;13765;51.166;4.466;2023-04-01T04:43:22;8.52;;;3.25;;
25972;SDS011;13765;51.166;4.466;2023-04-01T04:45:48;8.43;;;3.05;;
25972;SDS011;13765;51.166;4.466;2023-04-01T04:48:16;8.45;;;2.83;;
25972;SDS011;13765;51.166;4.466;2023-04-01T04:50:43;9.88;;;3.65;;
25972;SDS011;13765;51.166;4.466;2023-04-01T04:53:10;15.10;;;3.10;;
25972;SDS011;13765;51.166;4.466;2023-04-01T04:55:36;10.38;;;3.08;;
25972;SDS011;13765;51.166;4.466;2023-04-01T04:58:04;6.57;;;2.78;;
25972;SDS011;13765;51.166;4.466;2023-04-01T05:00:30;11.75;;;3.00;;
25972;SDS011;13765;51.166;4.466;2023-04-01T05:02:56;11.93;;;2.47;;
25972;SDS011;13765;51.166;4.466;2023-04-01T05:05:21;6.05;;;2.13;;
25972;SDS011;13765;51.166;4.466;2023-04-01T05:07:48;6.93;;;2.75;;
25972;SDS011;13765;51.166;4.466;2023-04-01T05:10:15;5.78;;;2.17;;
25972;SDS011;13765;51.166;4.466;2023-04-01T05:12:43;10.75;;;2.83;;
25972;SDS011;13765;51.166;4.466;2023-04-01T05:15:09;5.53;;;1.95;;
25972;SDS011;13765;51.166;4.466;2023-04-01T05:17:35;4.28;;;2.17;;
25972;SDS011;13765;51.166;4.466;2023-04-01T05:20:03;5.47;;;1.88;;
25972;SDS011;13765;51.166;4.466;2023-04-01T05:22:29;4.50;;;1.75;;
25972;SDS011;13765;51.166;4.466;2023-04-01T05:24:55;4.65;;;2.00;;
25972;SDS011;13765;51.166;4.466;2023-04-01T05:27:21;4.50;;;1.90;;
25972;SDS011;13765;51.166;4.466;2023-04-01T05:29:49;5.72;;;2.00;;
25972;SDS011;13765;51.166;4.466;2023-04-01T05:32:17;3.55;;;1.75;;
25972;SDS011;13765;51.166;4.466;2023-04-01T05:34:43;2.80;;;1.33;;
25972;SDS011;13765;51.166;4.466;2023-04-01T05:37:11;5.13;;;1.65;;
25972;SDS011;13765;51.166;4.466;2023-04-01T05:39:37;6.78;;;2.13;;
25972;SDS011;13765;51.166;4.466;2023-04-01T05:42:05;2.97;;;1.45;;
25972;SDS011;13765;51.166;4.466;2023-04-01T05:44:31;3.88;;;1.38;;
25972;SDS011;13765;51.166;4.466;2023-04-01T05:47:02;5.43;;;1.60;;
25972;SDS011;13765;51.166;4.466;2023-04-01T05:49:32;6.20;;;1.58;;
25972;SDS011;13765;51.166;4.466;2023-04-01T05:51:58;3.03;;;1.50;;
25972;SDS011;13765;51.166;4.466;2023-04-01T05:54:24;4.50;;;2.05;;
25972;SDS011;13765;51.166;4.466;2023-04-01T05:56:51;4.60;;;2.13;;
25972;SDS011;13765;51.166;4.466;2023-04-01T05:59:22;5.57;;;1.83;;
25972;SDS011;13765;51.166;4.466;2023-04-01T06:01:47;7.10;;;1.50;;
25972;SDS011;13765;51.166;4.466;2023-04-01T06:04:14;4.05;;;2.25;;
25972;SDS011;13765;51.166;4.466;2023-04-01T06:06:41;5.07;;;2.05;;
25972;SDS011;13765;51.166;4.466;2023-04-01T06:09:14;3.92;;;1.70;;
25972;SDS011;13765;51.166;4.466;2023-04-01T06:17:17;4.47;;;1.38;;
25972;SDS011;13765;51.166;4.466;2023-04-01T06:20:16;2.58;;;1.40;;
25972;SDS011;13765;51.166;4.466;2023-04-01T06:23:06;2.00;;;1.20;;
25972;SDS011;13765;51.166;4.466;2023-04-01T06:26:07;3.17;;;1.60;;
25972;SDS011;13765;51.166;4.466;2023-04-01T06:36:53;2.85;;;1.35;;
25972;SDS011;13765;51.166;4.466;2023-04-01T06:39:39;3.13;;;1.27;;
25972;SDS011;13765;51.166;4.466;2023-04-01T06:42:46;5.50;;;1.75;;
25972;SDS011;13765;51.166;4.466;2023-04-01T06:50:40;1.90;;;1.08;;
25972;SDS011;13765;51.166;4.466;2023-04-01T06:58:29;3.00;;;1.05;;
25972;SDS011;13765;51.166;4.466;2023-04-01T07:01:25;1.60;;;1.23;;
25972;SDS011;13765;51.166;4.466;2023-04-01T07:03:58;4.10;;;1.95;;
25972;SDS011;13765;51.166;4.466;2023-04-01T07:06:38;2.33;;;1.50;;
25972;SDS011;13765;51.166;4.466;2023-04-01T07:09:11;1.63;;;1.05;;
25972;SDS011;13765;51.166;4.466;2023-04-01T07:11:40;3.00;;;1.70;;
25972;SDS011;13765;51.166;4.466;2023-04-01T07:14:24;4.10;;;1.67;;
25972;SDS011;13765;51.166;4.466;2023-04-01T07:17:06;1.77;;;1.10;;
25972;SDS011;13765;51.166;4.466;2023-04-01T07:25:03;4.72;;;1.65;;
25972;SDS011;13765;51.166;4.466;2023-04-01T07:27:37;1.30;;;1.17;;
25972;SDS011;13765;51.166;4.466;2023-04-01T07:30:12;2.88;;;1.30;;
25972;SDS011;13765;51.166;4.466;2023-04-01T07:32:44;2.10;;;1.45;;
25972;SDS011;13765;51.166;4.466;2023-04-01T07:46:28;3.85;;;1.77;;
25972;SDS011;13765;51.166;4.466;2023-04-01T07:49:21;9.52;;;1.45;;
25972;SDS011;13765;51.166;4.466;2023-04-01T07:57:22;3.75;;;1.52;;
25972;SDS011;13765;51.166;4.466;2023-04-01T08:05:28;4.38;;;2.03;;
25972;SDS011;13765;51.166;4.466;2023-04-01T08:08:10;6.32;;;2.45;;
25972;SDS011;13765;51.166;4.466;2023-04-01T08:16:49;4.70;;;1.52;;
25972;SDS011;13765;51.166;4.466;2023-04-01T08:21:57;4.50;;;1.55;;
25972;SDS011;13765;51.166;4.466;2023-04-01T08:27:11;3.42;;;1.25;;
25972;SDS011;13765;51.166;4.466;2023-04-01T08:29:49;1.52;;;1.00;;
25972;SDS011;13765;51.166;4.466;2023-04-01T08:32:41;2.67;;;1.20;;
25972;SDS011;13765;51.166;4.466;2023-04-01T08:38:07;2.25;;;1.20;;
25972;SDS011;13765;51.166;4.466;2023-04-01T08:40:48;1.42;;;1.13;;
25972;SDS011;13765;51.166;4.466;2023-04-01T08:48:56;3.47;;;1.63;;
25972;SDS011;13765;51.166;4.466;2023-04-01T09:21:05;4.70;;;1.73;;
25972;SDS011;13765;51.166;4.466;2023-04-01T09:23:41;5.13;;;2.58;;
25972;SDS011;13765;51.166;4.466;2023-04-01T09:32:07;1.80;;;1.30;;
25972;SDS011;13765;51.166;4.466;2023-04-01T09:42:43;5.82;;;2.05;;
25972;SDS011;13765;51.166;4.466;2023-04-01T09:45:32;2.97;;;1.92;;
25972;SDS011;13765;51.166;4.466;2023-04-01T09:48:19;9.95;;;2.53;;
25972;SDS011;13765;51.166;4.466;2023-04-01T10:19:55;5.82;;;2.00;;
25972;SDS011;13765;51.166;4.466;2023-04-01T10:22:55;5.78;;;2.30;;
25972;SDS011;13765;51.166;4.466;2023-04-01T10:47:48;4.47;;;2.38;;
25972;SDS011;13765;51.166;4.466;2023-04-01T11:21:49;7.55;;;2.85;;
25972;SDS011;13765;51.166;4.466;2023-04-01T11:38:06;5.97;;;2.80;;
25972;SDS011;13765;51.166;4.466;2023-04-01T11:51:59;5.82;;;2.58;;
25972;SDS011;13765;51.166;4.466;2023-04-01T11:54:40;7.05;;;2.83;;
25972;SDS011;13765;51.166;4.466;2023-04-01T11:57:41;5.85;;;2.97;;
25972;SDS011;13765;51.166;4.466;2023-04-01T12:03:10;9.77;;;3.28;;
25972;SDS011;13765;51.166;4.466;2023-04-01T12:08:24;12.80;;;3.22;;
25972;SDS011;13765;51.166;4.466;2023-04-01T12:11:17;10.93;;;3.60;;
25972;SDS011;13765;51.166;4.466;2023-04-01T12:28:00;15.43;;;3.42;;
25972;SDS011;13765;51.166;4.466;2023-04-01T12:50:16;9.70;;;3.20;;
25972;SDS011;13765;51.166;4.466;2023-04-01T12:55:41;7.53;;;2.10;;
25972;SDS011;13765;51.166;4.466;2023-04-01T12:58:20;6.47;;;2.67;;
25972;SDS011;13765;51.166;4.466;2023-04-01T13:17:20;7.38;;;2.50;;
25972;SDS011;13765;51.166;4.466;2023-04-01T13:20:13;9.20;;;2.78;;
25972;SDS011;13765;51.166;4.466;2023-04-01T13:28:00;8.65;;;3.55;;
25972;SDS011;13765;51.166;4.466;2023-04-01T13:33:50;14.15;;;4.00;;
25972;SDS011;13765;51.166;4.466;2023-04-01T13:36:29;13.18;;;4.07;;
25972;SDS011;13765;51.166;4.466;2023-04-01T14:09:37;3.15;;;2.25;;
25972;SDS011;13765;51.166;4.466;2023-04-01T14:11:55;7.32;;;2.88;;
25972;SDS011;13765;51.166;4.466;2023-04-01T14:21:06;5.47;;;2.60;;
25972;SDS011;13765;51.166;4.466;2023-04-01T14:34:29;9.40;;;3.22;;
25972;SDS011;13765;51.166;4.466;2023-04-01T14:48:32;4.90;;;2.50;;
25972;SDS011;13765;51.166;4.466;2023-04-01T14:51:13;5.35;;;1.85;;
25972;SDS011;13765;51.166;4.466;2023-04-01T14:59:01;3.88;;;1.63;;
25972;SDS011;13765;51.166;4.466;2023-04-01T15:07:11;4.35;;;1.92;;
25972;SDS011;13765;51.166;4.466;2023-04-01T15:20:22;5.88;;;2.15;;
25972;SDS011;13765;51.166;4.466;2023-04-01T15:33:39;6.45;;;2.50;;
25972;SDS011;13765;51.166;4.466;2023-04-01T15:39:13;10.75;;;3.17;;
25972;SDS011;13765;51.166;4.466;2023-04-01T15:49:55;4.03;;;2.08;;
25972;SDS011;13765;51.166;4.466;2023-04-01T15:52:42;4.70;;;1.70;;
25972;SDS011;13765;51.166;4.466;2023-04-01T15:55:21;4.93;;;2.20;;
25972;SDS011;13765;51.166;4.466;2023-04-01T15:58:02;5.50;;;1.98;;
25972;SDS011;13765;51.166;4.466;2023-04-01T16:00:43;5.60;;;1.98;;
25972;SDS011;13765;51.166;4.466;2023-04-01T16:22:31;7.57;;;3.30;;
25972;SDS011;13765;51.166;4.466;2023-04-01T16:30:57;12.77;;;3.42;;
25972;SDS011;13765;51.166;4.466;2023-04-01T16:36:32;9.25;;;3.63;;
25972;SDS011;13765;51.166;4.466;2023-04-01T16:47:40;11.43;;;4.13;;
25972;SDS011;13765;51.166;4.466;2023-04-01T16:50:20;10.50;;;4.03;;
25972;SDS011;13765;51.166;4.466;2023-04-01T16:52:59;14.50;;;4.95;;
25972;SDS011;13765;51.166;4.466;2023-04-01T16:55:50;13.13;;;4.43;;
25972;SDS011;13765;51.166;4.466;2023-04-01T16:58:41;9.80;;;3.55;;
25972;SDS011;13765;51.166;4.466;2023-04-01T17:01:27;7.30;;;3.40;;
25972;SDS011;13765;51.166;4.466;2023-04-01T17:04:04;8.93;;;2.53;;
25972;SDS011;13765;51.166;4.466;2023-04-01T17:06:47;7.45;;;2.72;;
25972;SDS011;13765;51.166;4.466;2023-04-01T17:12:43;9.80;;;2.70;;
25972;SDS011;13765;51.166;4.466;2023-04-01T17:23:45;7.97;;;1.95;;
25972;SDS011;13765;51.166;4.466;2023-04-01T17:34:17;3.67;;;1.70;;
25972;SDS011;13765;51.166;4.466;2023-04-01T17:42:33;5.75;;;2.63;;
25972;SDS011;13765;51.166;4.466;2023-04-01T18:07:16;14.77;;;3.60;;
25972;SDS011;13765;51.166;4.466;2023-04-01T18:10:03;15.55;;;4.80;;
25972;SDS011;13765;51.166;4.466;2023-04-01T18:26:59;18.77;;;6.07;;
25972;SDS011;13765;51.166;4.466;2023-04-01T18:29:39;17.00;;;5.45;;
25972;SDS011;13765;51.166;4.466;2023-04-01T18:32:16;17.80;;;5.78;;
25972;SDS011;13765;51.166;4.466;2023-04-01T18:40:04;17.48;;;4.50;;
25972;SDS011;13765;51.166;4.466;2023-04-01T18:43:08;20.83;;;5.50;;
25972;SDS011;13765;51.166;4.466;2023-04-01T18:45:46;14.23;;;5.05;;
25972;SDS011;13765;51.166;4.466;2023-04-01T18:48:36;17.83;;;4.35;;
25972;SDS011;13765;51.166;4.466;2023-04-01T18:51:34;14.02;;;4.75;;
25972;SDS011;13765;51.166;4.466;2023-04-01T18:54:40;17.30;;;4.20;;
25972;SDS011;13765;51.166;4.466;2023-04-01T18:57:13;10.93;;;3.65;;
25972;SDS011;13765;51.166;4.466;2023-04-01T19:05:34;15.70;;;4.93;;
25972;SDS011;13765;51.166;4.466;2023-04-01T19:08:27;11.85;;;4.28;;
25972;SDS011;13765;51.166;4.466;2023-04-01T19:21:33;15.85;;;6.07;;
25972;SDS011;13765;51.166;4.466;2023-04-01T19:26:45;18.88;;;6.97;;
25972;SDS011;13765;51.166;4.466;2023-04-01T19:32:13;27.30;;;8.00;;
25972;SDS011;13765;51.166;4.466;2023-04-01T19:52:22;19.88;;;7.30;;
25972;SDS011;13765;51.166;4.466;2023-04-01T20:00:52;22.35;;;6.68;;
25972;SDS011;13765;51.166;4.466;2023-04-01T20:03:30;17.08;;;6.10;;
25972;SDS011;13765;51.166;4.466;2023-04-01T20:09:07;21.42;;;7.22;;
25972;SDS011;13765;51.166;4.466;2023-04-01T20:11:49;15.77;;;5.05;;
25972;SDS011;13765;51.166;4.466;2023-04-01T20:25:04;14.45;;;4.90;;
25972;SDS011;13765;51.166;4.466;2023-04-01T20:35:51;11.20;;;4.05;;
25972;SDS011;13765;51.166;4.466;2023-04-01T20:38:50;16.58;;;4.93;;
25972;SDS011;13765;51.166;4.466;2023-04-01T20:41:45;10.48;;;4.25;;
25972;SDS011;13765;51.166;4.466;2023-04-01T20:50:07;11.23;;;3.70;;
25972;SDS011;13765;51.166;4.466;2023-04-01T20:52:41;11.93;;;3.55;;
25972;SDS011;13765;51.166;4.466;2023-04-01T21:28:17;13.50;;;4.55;;
25972;SDS011;13765;51.166;4.466;2023-04-01T21:45:23;17.65;;;5.47;;
25972;SDS011;13765;51.166;4.466;2023-04-01T22:27:52;15.73;;;6.30;;
25972;SDS011;13765;51.166;4.466;2023-04-01T22:31:26;15.50;;;5.90;;
25972;SDS011;13765;51.166;4.466;2023-04-01T22:44:27;18.70;;;6.85;;
25972;SDS011;13765;51.166;4.466;2023-04-01T22:47:08;18.23;;;6.07;;
25972;SDS011;13765;51.166;4.466;2023-04-01T22:49:55;17.52;;;5.88;;
25972;SDS011;13765;51.166;4.466;2023-04-01T22:52:31;20.27;;;6.80;;
25972;SDS011;13765;51.166;4.466;2023-04-01T22:55:00;19.88;;;6.60;;
25972;SDS011;13765;51.166;4.466;2023-04-01T22:57:52;17.20;;;5.72;;
25972;SDS011;13765;51.166;4.466;2023-04-01T23:05:40;20.75;;;7.35;;
25972;SDS011;13765;51.166;4.466;2023-04-01T23:11:04;21.58;;;7.60;;
25972;SDS011;13765;51.166;4.466;2023-04-01T23:13:34;19.23;;;7.28;;
25972;SDS011;13765;51.166;4.466;2023-04-01T23:16:08;17.45;;;6.43;;
25972;SDS011;13765;51.166;4.466;2023-04-01T23:18:46;22.45;;;8.27;;
25972;SDS011;13765;51.166;4.466;2023-04-01T23:27:03;21.92;;;7.80;;
25972;SDS011;13765;51.166;4.466;2023-04-01T23:29:48;17.38;;;6.15;;
25972;SDS011;13765;51.166;4.466;2023-04-01T23:32:17;20.95;;;6.60;;
25972;SDS011;13765;51.166;4.466;2023-04-01T23:34:48;23.27;;;7.25;;
25972;SDS011;13765;51.166;4.466;2023-04-01T23:37:21;22.40;;;7.15;;
25972;SDS011;13765;51.166;4.466;2023-04-01T23:39:49;19.45;;;6.20;;
25972;SDS011;13765;51.166;4.466;2023-04-01T23:42:21;18.30;;;6.93;;
25972;SDS011;13765;51.166;4.466;2023-04-01T23:44:53;18.15;;;5.53;;
25972;SDS011;13765;51.166;4.466;2023-04-01T23:47:26;17.50;;;6.13;;
25972;SDS011;13765;51.166;4.466;2023-04-01T23:52:34;18.08;;;6.28;;
25972;SDS011;13765;51.166;4.466;2023-04-01T23:57:39;23.40;;;7.70;;
